createdAt,value
2022-09-04T00:00:27.402Z,96.13
2022-09-04T00:02:44.306Z,95.94
2022-09-04T00:04:55.989Z,95.49
2022-09-04T00:07:10.118Z,95.56
2022-09-04T00:09:18.134Z,95.64
2022-09-04T00:11:31.574Z,95.60
2022-09-04T00:13:36.645Z,95.52
2022-09-04T00:15:43.821Z,94.77
2022-09-04T00:17:52.668Z,95.28
2022-09-04T00:19:59.856Z,96.07
2022-09-04T00:22:05.910Z,96.03
2022-09-04T00:24:12.293Z,96.16
2022-09-04T00:26:21.979Z,97.32
2022-09-04T00:28:33.756Z,98.60
2022-09-04T00:30:40.862Z,99.14
2022-09-04T00:32:48.454Z,98.48
2022-09-04T00:35:01.165Z,97.85
2022-09-04T00:37:06.838Z,99.02
2022-09-04T00:39:13.767Z,99.33
2022-09-04T00:41:24.538Z,100.00
2022-09-04T00:44:03.487Z,99.91
2022-09-04T00:46:23.087Z,100.00
2022-09-04T00:48:44.904Z,99.97
2022-09-04T00:51:11.297Z,99.94
2022-09-04T00:53:27.267Z,100.00
2022-09-04T00:55:47.024Z,99.35
2022-09-04T00:58:07.574Z,99.75
2022-09-04T01:00:15.237Z,99.64
2022-09-04T01:02:24.425Z,100.00
2022-09-04T01:04:40.702Z,100.00
2022-09-04T01:06:49.925Z,100.00
2022-09-04T01:09:15.287Z,100.00
2022-09-04T01:11:26.796Z,100.00
2022-09-04T01:13:36.204Z,100.00
2022-09-04T01:15:46.431Z,100.00
2022-09-04T01:17:57.697Z,100.00
2022-09-04T01:20:08.783Z,100.00
2022-09-04T01:22:54.217Z,100.00
2022-09-04T01:25:06.829Z,100.00
2022-09-04T01:27:17.049Z,100.00
2022-09-04T01:29:27.990Z,100.00
2022-09-04T01:31:37.781Z,100.00
2022-09-04T01:33:46.192Z,100.00
2022-09-04T01:35:55.624Z,100.00
2022-09-04T01:38:04.495Z,100.00
2022-09-04T01:40:36.045Z,100.00
2022-09-04T01:42:45.851Z,100.00
2022-09-04T01:44:49.308Z,100.00
2022-09-04T01:47:01.065Z,100.00
2022-09-04T01:49:08.182Z,100.00
2022-09-04T01:51:17.992Z,100.00
2022-09-04T01:53:26.058Z,100.00
2022-09-04T01:55:36.817Z,100.00
2022-09-04T01:57:52.056Z,100.00
2022-09-04T02:00:05.526Z,100.00
2022-09-04T02:02:16.066Z,100.00
2022-09-04T02:04:23.167Z,100.00
2022-09-04T02:06:33.765Z,100.00
2022-09-04T02:08:58.812Z,100.00
2022-09-04T02:11:08.835Z,100.00
2022-09-04T02:13:22.336Z,100.00
2022-09-04T02:15:35.269Z,100.00
2022-09-04T02:17:44.752Z,100.00
2022-09-04T02:20:01.846Z,100.00
2022-09-04T02:22:13.757Z,100.00
2022-09-04T02:24:22.574Z,100.00
2022-09-04T02:26:28.468Z,100.00
2022-09-04T02:28:40.792Z,100.00
2022-09-04T02:30:47.563Z,100.00
2022-09-04T02:33:01.569Z,100.00
2022-09-04T02:35:11.125Z,100.00
2022-09-04T02:37:17.789Z,100.00
2022-09-04T02:39:32.174Z,100.00
2022-09-04T02:41:39.956Z,100.00
2022-09-04T02:43:57.614Z,100.00
2022-09-04T02:46:05.655Z,100.00
2022-09-04T02:48:13.762Z,100.00
2022-09-04T02:50:30.160Z,100.00
2022-09-04T02:52:46.110Z,100.00
2022-09-04T02:54:59.224Z,100.00
2022-09-04T02:57:10.212Z,100.00
2022-09-04T02:59:36.605Z,100.00
2022-09-04T03:01:49.723Z,100.00
2022-09-04T03:03:57.604Z,100.00
2022-09-04T03:06:04.704Z,100.00
2022-09-04T03:08:10.204Z,100.00
2022-09-04T03:10:17.281Z,100.00
2022-09-04T03:12:30.129Z,100.00
2022-09-04T03:14:40.664Z,100.00
2022-09-04T03:16:44.801Z,100.00
2022-09-04T03:19:00.559Z,100.00
2022-09-04T03:21:08.084Z,100.00
2022-09-04T03:23:16.488Z,100.00
2022-09-04T03:25:34.101Z,100.00
2022-09-04T03:27:37.394Z,100.00
2022-09-04T03:29:46.489Z,100.00
2022-09-04T03:31:53.956Z,100.00
2022-09-04T03:34:08.707Z,100.00
2022-09-04T03:36:15.975Z,100.00
2022-09-04T03:38:23.334Z,100.00
2022-09-04T03:40:36.600Z,100.00
2022-09-04T03:42:49.799Z,100.00
2022-09-04T03:45:02.610Z,100.00
2022-09-04T03:47:11.945Z,100.00
2022-09-04T03:49:21.057Z,100.00
2022-09-04T03:51:30.634Z,100.00
2022-09-04T03:53:40.069Z,100.00
2022-09-04T03:56:17.081Z,100.00
2022-09-04T03:58:23.870Z,100.00
2022-09-04T04:00:32.176Z,100.00
2022-09-04T04:02:49.149Z,100.00
2022-09-04T04:05:19.086Z,100.00
2022-09-04T04:07:30.272Z,100.00
2022-09-04T04:09:48.094Z,100.00
2022-09-04T04:12:06.407Z,100.00
2022-09-04T04:14:21.147Z,100.00
2022-09-04T04:16:33.651Z,100.00
2022-09-04T04:19:06.969Z,100.00
2022-09-04T04:21:14.820Z,100.00
2022-09-04T04:23:43.594Z,100.00
2022-09-04T04:25:55.147Z,100.00
2022-09-04T04:28:17.290Z,100.00
2022-09-04T04:30:20.462Z,100.00
2022-09-04T04:32:51.842Z,100.00
2022-09-04T04:35:04.713Z,100.00
2022-09-04T04:37:13.420Z,100.00
2022-09-04T04:39:21.044Z,100.00
2022-09-04T04:41:56.867Z,100.00
2022-09-04T04:44:09.778Z,100.00
2022-09-04T04:46:17.318Z,100.00
2022-09-04T04:48:53.109Z,100.00
2022-09-04T04:51:05.308Z,100.00
2022-09-04T04:53:15.685Z,100.00
2022-09-04T04:55:24.329Z,100.00
2022-09-04T04:57:33.623Z,100.00
2022-09-04T04:59:41.488Z,100.00
2022-09-04T05:01:51.373Z,100.00
2022-09-04T05:04:11.157Z,100.00
2022-09-04T05:06:18.477Z,100.00
2022-09-04T05:08:28.349Z,100.00
2022-09-04T05:10:35.139Z,100.00
2022-09-04T05:12:51.592Z,100.00
2022-09-04T05:14:59.245Z,100.00
2022-09-04T05:17:10.324Z,100.00
2022-09-04T05:19:20.977Z,100.00
2022-09-04T05:21:30.081Z,100.00
2022-09-04T05:23:38.533Z,100.00
2022-09-04T05:25:48.220Z,100.00
2022-09-04T05:27:59.083Z,100.00
2022-09-04T05:30:06.419Z,100.00
2022-09-04T05:32:15.492Z,100.00
2022-09-04T05:34:29.117Z,100.00
2022-09-04T05:36:42.357Z,100.00
2022-09-04T05:38:55.277Z,100.00
2022-09-04T05:41:08.583Z,100.00
2022-09-04T05:43:21.595Z,100.00
2022-09-04T05:45:26.866Z,100.00
2022-09-04T05:47:40.018Z,100.00
2022-09-04T05:49:56.899Z,100.00
2022-09-04T05:52:10.590Z,100.00
2022-09-04T05:54:26.265Z,100.00
2022-09-04T05:56:46.456Z,100.00
2022-09-04T05:58:58.345Z,100.00
2022-09-04T06:01:09.489Z,100.00
2022-09-04T06:03:38.795Z,100.00
2022-09-04T06:05:52.851Z,100.00
2022-09-04T06:08:03.342Z,100.00
2022-09-04T06:10:14.372Z,100.00
2022-09-04T06:12:54.582Z,98.42
2022-09-04T06:15:08.291Z,94.56
2022-09-04T06:17:18.882Z,89.84
2022-09-04T06:19:35.600Z,86.51
2022-09-04T06:22:05.707Z,83.76
2022-09-04T06:24:31.743Z,80.05
2022-09-04T06:26:47.076Z,77.08
2022-09-04T06:29:04.896Z,75.29
2022-09-04T06:31:24.523Z,72.41
2022-09-04T06:33:41.975Z,70.28
2022-09-04T06:35:56.593Z,68.63
2022-09-04T06:38:13.317Z,63.50
2022-09-04T06:40:33.069Z,59.96
2022-09-04T06:42:46.595Z,58.27
2022-09-04T06:45:02.099Z,56.04
2022-09-04T06:47:15.257Z,54.54
2022-09-04T06:49:22.990Z,56.20
2022-09-04T06:51:42.253Z,59.39
2022-09-04T06:53:55.046Z,59.51
2022-09-04T06:56:11.344Z,59.18
2022-09-04T06:58:25.066Z,61.07
2022-09-04T07:00:31.574Z,64.33
2022-09-04T07:02:44.908Z,63.81
2022-09-04T07:04:56.567Z,63.85
2022-09-04T07:07:04.812Z,63.04
2022-09-04T07:09:15.153Z,61.32
2022-09-04T07:11:24.316Z,64.76
2022-09-04T07:13:40.100Z,65.20
2022-09-04T07:15:48.162Z,65.40
2022-09-04T07:18:01.223Z,63.28
2022-09-04T07:20:16.941Z,64.41
2022-09-04T07:22:45.672Z,62.51
2022-09-04T07:25:11.148Z,62.53
2022-09-04T07:27:17.306Z,59.95
2022-09-04T07:29:31.787Z,60.47
2022-09-04T07:31:39.815Z,57.68
2022-09-04T07:33:51.193Z,54.98
2022-09-04T07:35:59.561Z,58.05
2022-09-04T07:38:10.756Z,56.62
2022-09-04T07:40:17.657Z,57.27
2022-09-04T07:42:27.963Z,55.43
2022-09-04T07:44:42.557Z,54.69
2022-09-04T07:46:50.392Z,54.85
2022-09-04T07:48:57.648Z,53.76
2022-09-04T07:51:04.956Z,53.74
2022-09-04T07:53:18.539Z,54.73
2022-09-04T07:55:34.897Z,53.60
2022-09-04T07:58:01.439Z,50.51
2022-09-04T08:00:09.541Z,47.43
2022-09-04T08:02:40.446Z,45.65
2022-09-04T08:05:11.948Z,44.90
2022-09-04T08:07:20.910Z,45.45
2022-09-04T08:09:42.892Z,47.13
2022-09-04T08:12:18.488Z,48.52
2022-09-04T08:14:39.668Z,47.82
2022-09-04T08:16:47.134Z,47.20
2022-09-04T08:19:09.376Z,46.49
2022-09-04T08:21:19.518Z,47.45
2022-09-04T08:23:36.612Z,45.20
2022-09-04T08:25:52.566Z,46.31
2022-09-04T08:28:18.535Z,44.87
2022-09-04T08:30:22.060Z,45.63
2022-09-04T08:32:58.260Z,47.83
2022-09-04T08:35:11.870Z,47.11
2022-09-04T08:37:22.512Z,45.73
2022-09-04T08:39:32.059Z,44.93
2022-09-04T08:42:16.511Z,44.20
2022-09-04T08:45:04.538Z,44.75
2022-09-04T08:47:52.803Z,44.65
2022-09-04T08:50:35.482Z,45.89
2022-09-04T08:53:03.849Z,45.34
2022-09-04T08:55:37.093Z,45.27
2022-09-04T08:57:56.673Z,46.38
2022-09-04T09:00:09.974Z,45.57
2022-09-04T09:02:50.210Z,44.82
2022-09-04T09:05:25.836Z,43.67
2022-09-04T09:07:52.033Z,43.02
2022-09-04T09:10:30.506Z,41.10
2022-09-04T09:12:57.706Z,42.52
2022-09-04T09:15:27.200Z,42.17
2022-09-04T09:17:39.111Z,41.59
2022-09-04T09:19:46.174Z,41.94
2022-09-04T09:22:07.580Z,40.71
2022-09-04T09:24:48.217Z,41.17
2022-09-04T09:27:01.664Z,42.04
2022-09-04T09:29:40.059Z,44.49
2022-09-04T09:32:22.005Z,43.05
2022-09-04T09:34:58.560Z,42.41
2022-09-04T09:37:35.280Z,42.84
2022-09-04T09:40:23.043Z,43.04
2022-09-04T09:42:55.938Z,44.55
2022-09-04T09:45:36.792Z,45.38
2022-09-04T09:48:27.020Z,44.56
2022-09-04T09:50:57.540Z,45.12
2022-09-04T09:53:23.815Z,45.80
2022-09-04T09:56:01.081Z,47.62
2022-09-04T09:58:37.220Z,48.23
2022-09-04T10:00:48.620Z,47.93
2022-09-04T10:03:30.431Z,47.65
2022-09-04T10:05:52.802Z,46.26
2022-09-04T10:08:11.069Z,45.35
2022-09-04T10:10:25.652Z,44.78
2022-09-04T10:13:07.396Z,45.60
2022-09-04T10:15:54.058Z,44.10
2022-09-04T10:18:38.976Z,43.81
2022-09-04T10:21:12.891Z,43.21
2022-09-04T10:23:38.136Z,43.71
2022-09-04T10:26:07.529Z,42.68
2022-09-04T10:28:31.330Z,42.86
2022-09-04T10:30:46.460Z,42.65
2022-09-04T10:33:18.862Z,41.59
2022-09-04T10:35:27.447Z,42.29
2022-09-04T10:37:50.666Z,42.33
2022-09-04T10:40:22.188Z,42.47
2022-09-04T10:42:34.094Z,41.11
2022-09-04T10:44:44.495Z,41.52
2022-09-04T10:46:55.808Z,40.35
2022-09-04T10:49:30.407Z,39.25
2022-09-04T10:51:49.606Z,39.21
2022-09-04T10:54:14.824Z,38.21
2022-09-04T10:56:23.867Z,37.61
2022-09-04T10:58:58.488Z,37.35
2022-09-04T11:01:29.694Z,38.01
2022-09-04T11:03:44.845Z,38.86
2022-09-04T11:06:25.853Z,38.92
2022-09-04T11:08:49.908Z,40.30
2022-09-04T11:11:12.349Z,41.59
2022-09-04T11:13:51.530Z,39.85
2022-09-04T11:16:10.613Z,41.70
2022-09-04T11:18:46.506Z,41.67
2022-09-04T11:21:22.707Z,40.34
2022-09-04T11:24:03.842Z,40.44
2022-09-04T11:26:36.299Z,40.52
2022-09-04T11:29:00.345Z,40.90
2022-09-04T11:31:14.639Z,40.56
2022-09-04T11:33:41.219Z,39.24
2022-09-04T11:36:09.948Z,38.43
2022-09-04T11:38:31.875Z,39.47
2022-09-04T11:41:17.568Z,40.54
2022-09-04T11:43:50.515Z,40.05
2022-09-04T11:46:23.096Z,40.72
2022-09-04T11:48:47.854Z,40.09
2022-09-04T11:51:16.537Z,41.31
2022-09-04T11:53:36.788Z,38.71
2022-09-04T11:55:57.744Z,39.10
2022-09-04T11:58:15.011Z,39.54
2022-09-04T12:00:18.706Z,39.80
2022-09-04T12:02:42.941Z,38.82
2022-09-04T12:05:05.564Z,37.35
2022-09-04T12:07:17.364Z,37.10
2022-09-04T12:09:45.848Z,38.13
2022-09-04T12:12:27.674Z,37.10
2022-09-04T12:14:43.680Z,36.80
2022-09-04T12:17:15.441Z,36.69
2022-09-04T12:20:07.243Z,35.99
2022-09-04T12:22:36.425Z,35.82
2022-09-04T12:25:09.840Z,37.14
2022-09-04T12:27:42.427Z,38.39
2022-09-04T12:30:05.524Z,37.97
2022-09-04T12:32:22.452Z,38.71
2022-09-04T12:34:41.445Z,38.50
2022-09-04T12:37:21.317Z,37.74
2022-09-04T12:39:57.829Z,35.80
2022-09-04T12:42:06.805Z,36.58
2022-09-04T12:44:16.718Z,36.90
2022-09-04T12:46:31.021Z,36.37
2022-09-04T12:48:39.127Z,36.82
2022-09-04T12:50:46.663Z,36.72
2022-09-04T12:53:05.073Z,37.37
2022-09-04T12:55:14.684Z,38.41
2022-09-04T12:57:30.380Z,38.27
2022-09-04T12:59:48.656Z,38.29
2022-09-04T13:01:59.161Z,38.88
2022-09-04T13:04:08.582Z,39.97
2022-09-04T13:06:21.749Z,38.75
2022-09-04T13:08:34.705Z,38.38
2022-09-04T13:10:44.804Z,38.07
2022-09-04T13:12:54.092Z,36.07
2022-09-04T13:15:19.502Z,36.47
2022-09-04T13:17:28.308Z,35.63
2022-09-04T13:19:37.084Z,35.44
2022-09-04T13:21:57.664Z,36.10
2022-09-04T13:24:10.488Z,36.63
2022-09-04T13:26:30.981Z,36.01
2022-09-04T13:28:44.420Z,35.98
2022-09-04T13:31:00.849Z,35.36
2022-09-04T13:33:22.605Z,35.77
2022-09-04T13:35:42.649Z,34.42
2022-09-04T13:38:02.650Z,36.22
2022-09-04T13:40:19.116Z,36.69
2022-09-04T13:42:55.337Z,36.73
2022-09-04T13:45:05.552Z,36.57
2022-09-04T13:47:11.211Z,36.23
2022-09-04T13:49:17.113Z,35.83
2022-09-04T13:51:24.307Z,36.08
2022-09-04T13:53:30.907Z,35.65
2022-09-04T13:55:36.246Z,36.64
2022-09-04T13:57:42.667Z,36.37
2022-09-04T13:59:50.130Z,35.81
2022-09-04T14:01:58.337Z,35.80
2022-09-04T14:04:03.628Z,36.01
2022-09-04T14:06:10.217Z,35.63
2022-09-04T14:08:16.077Z,35.80
2022-09-04T14:10:21.932Z,36.24
2022-09-04T14:12:35.478Z,36.56
2022-09-04T14:15:13.684Z,36.35
2022-09-04T14:17:27.047Z,36.56
2022-09-04T14:19:42.594Z,36.49
2022-09-04T14:22:03.960Z,37.49
2022-09-04T14:24:12.433Z,38.08
2022-09-04T14:26:21.152Z,38.63
2022-09-04T14:28:30.752Z,38.81
2022-09-04T14:30:40.161Z,39.16
2022-09-04T14:32:57.704Z,39.12
2022-09-04T14:35:10.740Z,38.99
2022-09-04T14:37:25.227Z,39.20
2022-09-04T14:39:34.038Z,39.05
2022-09-04T14:41:44.226Z,39.68
2022-09-04T14:44:03.497Z,40.10
2022-09-04T14:46:12.378Z,40.38
2022-09-04T14:48:19.599Z,39.64
2022-09-04T14:50:28.625Z,39.72
2022-09-04T14:52:39.242Z,39.07
2022-09-04T14:54:46.205Z,38.18
2022-09-04T14:56:50.364Z,38.41
2022-09-04T14:58:56.537Z,38.56
2022-09-04T15:01:02.750Z,38.84
2022-09-04T15:03:10.011Z,38.35
2022-09-04T15:05:21.772Z,38.36
2022-09-04T15:07:49.533Z,38.11
2022-09-04T15:09:54.627Z,37.75
2022-09-04T15:12:25.609Z,37.12
2022-09-04T15:14:32.880Z,37.47
2022-09-04T15:16:46.723Z,37.19
2022-09-04T15:18:59.677Z,38.50
2022-09-04T15:21:06.584Z,38.08
2022-09-04T15:23:15.708Z,37.54
2022-09-04T15:25:57.766Z,37.96
2022-09-04T15:28:04.490Z,37.90
2022-09-04T15:30:10.361Z,37.41
2022-09-04T15:32:14.735Z,37.66
2022-09-04T15:34:22.361Z,37.36
2022-09-04T15:36:27.610Z,37.90
2022-09-04T15:38:32.212Z,38.40
2022-09-04T15:40:36.984Z,38.52
2022-09-04T15:42:46.536Z,38.58
2022-09-04T15:44:49.493Z,38.59
2022-09-04T15:47:00.637Z,39.33
2022-09-04T15:49:17.042Z,39.59
2022-09-04T15:51:45.319Z,40.58
2022-09-04T15:53:53.802Z,39.93
2022-09-04T15:56:10.470Z,40.09
2022-09-04T15:58:18.363Z,39.67
2022-09-04T16:00:23.811Z,40.28
2022-09-04T16:02:36.505Z,41.63
2022-09-04T16:04:43.543Z,42.44
2022-09-04T16:06:54.556Z,43.39
2022-09-04T16:09:02.245Z,43.92
2022-09-04T16:11:11.633Z,43.85
2022-09-04T16:13:43.409Z,44.51
2022-09-04T16:15:47.462Z,44.38
2022-09-04T16:17:54.529Z,44.59
2022-09-04T16:20:01.770Z,45.01
2022-09-04T16:22:11.894Z,45.52
2022-09-04T16:24:18.445Z,45.29
2022-09-04T16:26:27.085Z,45.95
2022-09-04T16:28:32.440Z,45.73
2022-09-04T16:30:41.598Z,45.75
2022-09-04T16:32:44.654Z,46.40
2022-09-04T16:34:51.831Z,46.95
2022-09-04T16:37:08.566Z,46.92
2022-09-04T16:39:20.618Z,46.41
2022-09-04T16:41:26.666Z,46.97
2022-09-04T16:43:34.293Z,46.70
2022-09-04T16:45:40.379Z,46.70
2022-09-04T16:47:48.637Z,47.07
2022-09-04T16:49:58.452Z,47.29
2022-09-04T16:52:05.627Z,47.50
2022-09-04T16:54:14.190Z,47.06
2022-09-04T16:56:22.670Z,46.92
2022-09-04T16:58:40.398Z,46.87
2022-09-04T17:01:14.339Z,46.71
2022-09-04T17:03:22.575Z,47.60
2022-09-04T17:05:34.860Z,47.68
2022-09-04T17:07:39.802Z,48.09
2022-09-04T17:09:54.617Z,47.84
2022-09-04T17:11:59.900Z,48.06
2022-09-04T17:14:08.571Z,48.41
2022-09-04T17:16:15.196Z,48.29
2022-09-04T17:18:21.473Z,49.66
2022-09-04T17:20:36.304Z,49.71
2022-09-04T17:28:31.003Z,49.21
2022-09-04T17:29:15.035Z,50.04
2022-09-04T17:29:17.344Z,49.97
2022-09-04T17:30:31.887Z,52.48
2022-09-04T17:36:31.424Z,52.75
2022-09-04T17:40:43.086Z,54.44
2022-09-04T17:40:53.291Z,54.67
2022-09-04T17:40:54.117Z,55.00
2022-09-04T17:43:10.602Z,55.42
2022-09-04T17:45:22.064Z,56.43
2022-09-04T17:47:31.861Z,57.66
2022-09-04T17:49:35.484Z,58.36
2022-09-04T17:51:38.802Z,59.13
2022-09-04T17:53:48.565Z,60.05
2022-09-04T17:55:54.871Z,60.68
2022-09-04T17:58:05.175Z,61.40
2022-09-04T18:00:10.383Z,62.10
2022-09-04T18:02:17.637Z,63.58
2022-09-04T18:04:27.863Z,63.81
2022-09-04T18:06:37.970Z,64.83
2022-09-04T18:08:50.348Z,65.36
2022-09-04T18:10:58.797Z,67.65
2022-09-04T18:13:36.826Z,70.41
2022-09-04T18:15:39.112Z,71.75
2022-09-04T18:17:48.218Z,72.67
2022-09-04T18:19:53.322Z,74.08
2022-09-04T18:22:25.880Z,75.09
2022-09-04T18:24:22.882Z,76.19
2022-09-04T18:26:40.772Z,76.21
2022-09-04T18:28:50.904Z,76.58
2022-09-04T18:37:22.284Z,80.15
2022-09-04T18:37:23.764Z,81.08
2022-09-04T18:37:24.843Z,78.15
2022-09-04T18:38:37.586Z,81.91
2022-09-04T18:44:50.570Z,82.70
2022-09-04T18:50:29.294Z,83.54
2022-09-04T18:50:30.651Z,85.89
2022-09-04T18:50:30.866Z,87.48
2022-09-04T18:51:12.620Z,88.83
2022-09-04T18:53:02.345Z,89.45
2022-09-04T18:55:14.895Z,91.05
2022-09-04T18:57:26.602Z,90.15
2022-09-04T18:59:30.961Z,91.82
2022-09-04T19:01:42.657Z,92.46
2022-09-04T19:03:47.948Z,92.18
2022-09-04T19:05:53.465Z,93.22
2022-09-04T19:07:59.167Z,93.57
2022-09-04T19:10:10.826Z,92.51
2022-09-04T19:12:15.180Z,92.00
2022-09-04T19:14:21.472Z,95.46
2022-09-04T19:16:30.958Z,96.29
2022-09-04T19:18:48.174Z,96.60
2022-09-04T19:20:56.801Z,98.11
2022-09-04T19:23:04.836Z,100.00
2022-09-04T19:25:22.662Z,100.00
2022-09-04T19:27:29.847Z,100.00
2022-09-04T19:29:37.875Z,100.00
2022-09-04T19:31:45.006Z,100.00
2022-09-04T19:33:52.603Z,100.00
2022-09-04T19:36:05.974Z,100.00
2022-09-04T19:43:51.253Z,100.00
2022-09-04T19:46:06.137Z,100.00
2022-09-04T19:46:16.658Z,100.00
2022-09-04T19:46:26.239Z,100.00
2022-09-04T19:48:22.648Z,100.00
2022-09-04T19:53:22.410Z,100.00
2022-09-04T19:53:33.980Z,100.00
2022-09-04T19:55:35.631Z,100.00
2022-09-04T19:57:42.824Z,100.00
2022-09-04T19:59:48.796Z,100.00
2022-09-04T20:02:00.899Z,100.00
2022-09-04T20:04:13.902Z,100.00
2022-09-04T20:06:22.577Z,100.00
2022-09-04T20:08:30.783Z,100.00
2022-09-04T20:10:45.186Z,100.00
2022-09-04T20:12:50.884Z,100.00
2022-09-04T20:14:57.516Z,100.00
2022-09-04T20:17:12.740Z,100.00
2022-09-04T20:19:27.574Z,100.00
2022-09-04T20:21:48.357Z,100.00
2022-09-04T20:23:55.044Z,100.00
2022-09-04T20:26:05.906Z,100.00
2022-09-04T20:28:18.417Z,100.00
2022-09-04T20:30:23.981Z,100.00
2022-09-04T20:32:29.312Z,100.00
2022-09-04T20:34:44.313Z,100.00
2022-09-04T20:36:52.741Z,100.00
2022-09-04T20:38:58.086Z,100.00
2022-09-04T20:41:06.928Z,100.00
2022-09-04T20:43:20.276Z,100.00
2022-09-04T20:46:58.449Z,100.00
2022-09-04T20:52:46.465Z,100.00
2022-09-04T20:52:56.062Z,100.00
2022-09-04T20:53:09.224Z,100.00
2022-09-04T20:55:24.451Z,100.00
2022-09-04T21:02:28.336Z,100.00
2022-09-04T21:03:14.506Z,100.00
2022-09-04T21:03:19.609Z,100.00
2022-09-04T21:05:24.348Z,100.00
2022-09-04T21:07:31.629Z,100.00
2022-09-04T21:09:54.816Z,100.00
2022-09-04T21:12:13.501Z,100.00
2022-09-04T21:14:21.453Z,100.00
2022-09-04T21:16:35.911Z,100.00
2022-09-04T21:19:27.667Z,100.00
2022-09-04T21:21:45.633Z,100.00
2022-09-04T21:24:24.525Z,100.00
2022-09-04T21:26:41.972Z,100.00
2022-09-04T21:29:10.903Z,100.00
2022-09-04T21:31:22.532Z,100.00
2022-09-04T21:33:39.134Z,100.00
2022-09-04T21:36:26.136Z,100.00
2022-09-04T21:38:54.480Z,100.00
2022-09-04T21:41:22.735Z,100.00
2022-09-04T21:43:49.646Z,100.00
2022-09-04T21:46:04.623Z,100.00
2022-09-04T21:48:47.543Z,100.00
2022-09-04T21:50:58.973Z,100.00
2022-09-04T21:53:33.204Z,100.00
2022-09-04T21:59:42.525Z,100.00
2022-09-04T22:02:36.670Z,100.00
2022-09-04T22:02:39.687Z,100.00
2022-09-04T22:04:18.560Z,100.00
2022-09-04T22:06:47.326Z,100.00
2022-09-04T22:13:29.610Z,100.00
2022-09-04T22:13:40.851Z,100.00
2022-09-04T22:14:22.334Z,100.00
2022-09-04T22:17:03.149Z,100.00
2022-09-04T22:19:37.062Z,100.00
2022-09-04T22:21:50.821Z,100.00
2022-09-04T22:24:19.541Z,100.00
2022-09-04T22:27:00.528Z,100.00
2022-09-04T22:29:26.710Z,100.00
2022-09-04T22:32:03.119Z,100.00
2022-09-04T22:34:42.273Z,100.00
2022-09-04T22:37:29.559Z,100.00
2022-09-04T22:39:57.595Z,100.00
2022-09-04T22:42:26.930Z,100.00
2022-09-04T22:44:41.690Z,100.00
2022-09-04T22:47:25.130Z,100.00
2022-09-04T22:49:37.379Z,100.00
2022-09-04T22:51:51.066Z,100.00
2022-09-04T22:54:11.759Z,100.00
2022-09-04T22:56:24.620Z,100.00
2022-09-04T22:58:49.096Z,100.00
2022-09-04T23:01:16.505Z,100.00
2022-09-04T23:03:33.093Z,100.00
2022-09-04T23:07:47.083Z,100.00
2022-09-04T23:13:44.934Z,100.00
2022-09-04T23:14:02.002Z,100.00
2022-09-04T23:14:20.135Z,100.00
2022-09-04T23:16:44.281Z,100.00
2022-09-04T23:23:38.450Z,100.00
2022-09-04T23:26:37.638Z,100.00
2022-09-04T23:26:58.763Z,100.00
2022-09-04T23:27:30.620Z,100.00
2022-09-04T23:29:48.026Z,100.00
2022-09-04T23:32:07.372Z,100.00
2022-09-04T23:34:26.574Z,100.00
2022-09-04T23:36:55.020Z,100.00
2022-09-04T23:39:42.366Z,100.00
2022-09-04T23:42:03.087Z,100.00
2022-09-04T23:44:31.125Z,100.00
2022-09-04T23:46:47.256Z,100.00
2022-09-04T23:49:11.338Z,100.00
2022-09-04T23:51:25.188Z,100.00
2022-09-04T23:53:38.635Z,100.00
2022-09-04T23:56:11.324Z,100.00
2022-09-04T23:58:47.801Z,100.00
